Time;durP1;ratioP1;P1;durP2;ratioP2;P2;SDS_P1;SDS_P2;PMS_P1;PMS_P2;Temp;Humidity;BMP_temperature;BMP_pressure;BME280_temperature;BME280_humidity;BME280_pressure;Samples;Min_cycle;Max_cycle;Signal;HPM_P1;HPM_P2
2022/01/14 00:02:15;;;;;;;23.80;10.13;;;;;;;16.39;41.16;103844.88;5106389;27;20031;-67
2022/01/14 00:04:41;;;;;;;26.87;10.07;;;;;;;16.36;41.14;103852.78;5133643;27;20027;-67
2022/01/14 00:07:06;;;;;;;23.83;9.17;;;;;;;17.17;40.39;103843.16;5132061;27;20486;-68
2022/01/14 00:09:34;;;;;;;26.53;10.30;;;;;;;17.24;39.21;103837.06;5113791;27;20038;-67
2022/01/14 00:12:03;;;;;;;28.60;10.67;;;;;;;16.37;40.53;103845.72;5121520;27;20055;-67
2022/01/14 00:14:41;;;;;;;26.30;9.67;;;;;;;17.04;40.05;103835.09;5133210;27;20042;-67
2022/01/14 00:17:12;;;;;;;31.60;10.03;;;;;;;17.43;38.97;103827.53;5114531;27;20394;-68
2022/01/14 00:19:39;;;;;;;28.90;10.37;;;;;;;15.80;41.80;103836.97;5113021;27;20027;-67
2022/01/14 00:22:10;;;;;;;27.93;9.93;;;;;;;17.13;39.54;103824.63;5101486;27;20043;-67
2022/01/14 00:33:10;;;;;;;25.30;10.00;;;;;;;16.90;40.30;103812.97;5113703;27;20097;-67
2022/01/14 00:35:40;;;;;;;30.07;10.90;;;;;;;16.94;40.05;103806.84;5106247;27;20031;-67
2022/01/14 00:38:06;;;;;;;30.67;11.37;;;;;;;17.11;39.63;103810.50;5127463;27;20026;-67
2022/01/14 00:40:32;;;;;;;34.53;11.43;;;;;;;16.22;41.79;103815.59;5106490;28;20126;-68
2022/01/14 00:42:57;;;;;;;31.57;10.13;;;;;;;15.64;42.66;103807.69;5111771;28;20049;-67
2022/01/14 00:45:23;;;;;;;34.07;11.27;;;;;;;16.75;40.85;103798.66;5121708;27;20498;-67
2022/01/14 00:47:48;;;;;;;29.50;10.23;;;;;;;15.75;43.07;103800.81;5113873;27;20083;-67
2022/01/14 00:50:15;;;;;;;30.27;11.03;;;;;;;16.18;42.05;103797.94;5126434;27;20024;-67
2022/01/14 00:52:42;;;;;;;33.23;11.90;;;;;;;15.70;43.72;103797.25;5127122;27;20027;-68
2022/01/14 00:55:12;;;;;;;30.33;10.60;;;;;;;15.83;41.91;103794.84;5113622;27;20064;-67
2022/01/14 01:00:36;;;;;;;26.77;9.50;;;;;;;14.93;44.15;103794.19;5117475;27;20032;-68
2022/01/14 01:03:02;;;;;;;27.80;9.33;;;;;;;14.18;45.84;103800.53;5110517;27;20042;-67
2022/01/14 01:05:28;;;;;;;24.57;9.73;;;;;;;16.09;42.01;103780.25;5114062;27;20035;-67
2022/01/14 01:08:06;;;;;;;30.30;10.33;;;;;;;14.95;44.23;103785.41;5113181;27;20022;-67
2022/01/14 01:10:33;;;;;;;31.67;10.73;;;;;;;13.96;46.28;103784.25;5124888;27;20030;-68
2022/01/14 01:13:10;;;;;;;26.50;10.53;;;;;;;15.22;43.32;103777.13;5093581;28;20092;-67
2022/01/14 01:15:36;;;;;;;33.77;12.03;;;;;;;15.29;43.33;103779.03;5105695;27;20487;-67
2022/01/14 01:18:01;;;;;;;30.77;12.60;;;;;;;15.63;41.35;103779.53;5109140;27;20024;-67
2022/01/14 01:20:26;;;;;;;39.97;11.70;;;;;;;14.82;43.82;103779.03;5122342;27;20051;-67
2022/01/14 01:22:54;;;;;;;32.13;11.80;;;;;;;15.80;42.59;103778.94;5132414;27;20054;-67
2022/01/14 01:25:23;;;;;;;30.07;11.37;;;;;;;15.10;43.03;103767.28;5112670;27;20031;-66
2022/01/14 01:27:50;;;;;;;38.57;12.63;;;;;;;16.09;41.64;103772.34;5108629;28;20012;-67
2022/01/14 01:30:47;;;;;;;37.70;12.20;;;;;;;16.23;40.77;103769.00;5102249;27;20047;-67
2022/01/14 01:33:05;;;;;;;31.57;11.93;;;;;;;16.10;40.99;103767.94;5130839;27;20035;-67
2022/01/14 01:35:32;;;;;;;32.23;13.13;;;;;;;15.66;41.93;103760.25;5131853;27;20485;-67
2022/01/14 01:37:57;;;;;;;31.83;12.70;;;;;;;16.13;40.02;103761.81;5106265;28;20496;-67
2022/01/14 01:40:25;;;;;;;35.27;12.97;;;;;;;15.92;40.87;103758.03;5120569;27;20081;-68
2022/01/14 01:42:53;;;;;;;31.53;12.80;;;;;;;16.45;39.87;103752.53;5131180;27;20121;-68
2022/01/14 01:45:22;;;;;;;34.80;12.47;;;;;;;16.44;39.78;103756.09;5112472;27;20042;-67
2022/01/14 01:47:50;;;;;;;33.80;14.20;;;;;;;16.54;39.30;103759.72;5130366;27;20023;-67
2022/01/14 01:50:20;;;;;;;37.47;14.13;;;;;;;16.18;40.02;103758.38;5105163;28;20023;-67
2022/01/14 01:52:46;;;;;;;37.70;13.93;;;;;;;15.49;42.09;103760.88;5115114;27;20022;-67
2022/01/14 01:55:13;;;;;;;36.20;12.83;;;;;;;15.88;40.69;103761.47;5112956;27;20486;-68
2022/01/14 01:57:41;;;;;;;37.20;14.03;;;;;;;16.23;40.02;103758.44;5111963;27;20401;-67
2022/01/14 02:00:08;;;;;;;33.63;13.10;;;;;;;16.77;39.75;103757.31;5123963;27;20032;-67
2022/01/14 02:02:36;;;;;;;30.70;12.80;;;;;;;14.98;42.95;103760.03;5110755;27;20033;-67
2022/01/14 02:05:04;;;;;;;34.80;13.47;;;;;;;16.49;40.31;103757.88;5131330;27;20055;-67
2022/01/14 02:07:31;;;;;;;35.23;12.33;;;;;;;16.85;39.18;103760.03;5109017;27;20019;-67
2022/01/14 02:09:56;;;;;;;35.80;12.90;;;;;;;16.54;39.56;103756.16;5094601;28;20043;-67
2022/01/14 02:12:22;;;;;;;36.67;13.23;;;;;;;16.22;39.36;103761.94;5110447;28;20023;-67
2022/01/14 02:14:55;;;;;;;39.50;12.43;;;;;;;15.41;41.32;103760.78;5110466;27;20428;-67
2022/01/14 02:17:46;;;;;;;38.10;13.17;;;;;;;15.81;40.72;103764.91;5110347;27;20564;-67
2022/01/14 02:23:02;;;;;;;31.33;12.30;;;;;;;16.88;38.90;103759.16;5113121;27;20095;-67
2022/01/14 02:25:30;;;;;;;37.33;12.63;;;;;;;17.05;38.42;103747.03;5112494;27;20034;-68
2022/01/14 02:28:00;;;;;;;32.33;12.13;;;;;;;16.35;39.75;103758.59;5105294;28;20038;-68
2022/01/14 02:30:27;;;;;;;29.97;11.30;;;;;;;16.50;39.21;103746.44;5120120;27;20031;-67
2022/01/14 02:32:52;;;;;;;30.33;11.80;;;;;;;16.03;39.97;103758.19;5092911;28;20031;-68
2022/01/14 02:35:18;;;;;;;33.03;12.77;;;;;;;16.69;39.41;103748.44;5123414;27;20087;-67
2022/01/14 02:37:43;;;;;;;38.60;12.47;;;;;;;16.64;39.23;103755.41;5095028;28;20031;-67
2022/01/14 02:40:10;;;;;;;30.83;11.63;;;;;;;16.16;39.99;103757.47;5116534;27;20497;-67
2022/01/14 02:42:36;;;;;;;29.60;10.50;;;;;;;14.93;42.13;103762.59;5128794;27;20031;-68
2022/01/14 02:45:05;;;;;;;37.17;10.77;;;;;;;16.05;40.29;103759.97;5096679;27;20050;-67
2022/01/14 02:47:31;;;;;;;25.27;10.43;;;;;;;15.90;40.63;103770.31;5129345;27;20019;-67
2022/01/14 02:49:56;;;;;;;24.70;11.40;;;;;;;16.09;40.40;103767.06;5109874;27;20395;-67
2022/01/14 02:52:43;;;;;;;33.93;10.37;;;;;;;16.27;39.86;103761.13;5130223;27;20425;-67
2022/01/14 02:55:18;;;;;;;29.30;11.07;;;;;;;16.10;39.68;103768.84;5128311;27;20604;-68
2022/01/14 02:57:46;;;;;;;26.57;10.60;;;;;;;15.87;40.97;103770.28;5121056;28;20475;-67
2022/01/14 03:00:12;;;;;;;28.60;10.33;;;;;;;14.20;43.53;103772.50;5110160;28;20030;-68
2022/01/14 03:02:43;;;;;;;21.70;10.33;;;;;;;14.51;42.88;103774.03;5109099;28;20031;-67
2022/01/14 03:05:09;;;;;;;28.17;10.47;;;;;;;14.70;43.76;103770.06;5127555;28;20046;-67
2022/01/14 03:07:36;;;;;;;28.83;10.47;;;;;;;15.35;41.43;103776.47;5111474;28;20015;-67
2022/01/14 03:10:03;;;;;;;25.00;10.90;;;;;;;15.86;41.55;103779.06;5129282;28;20027;-67
2022/01/14 03:12:29;;;;;;;20.73;10.40;;;;;;;15.61;41.62;103778.66;5111034;28;20035;-67
2022/01/14 03:14:54;;;;;;;30.13;11.50;;;;;;;16.30;40.13;103776.13;5106527;28;20038;-67
2022/01/14 03:17:20;;;;;;;24.20;9.93;;;;;;;16.24;40.06;103781.34;5110146;28;20035;-68
2022/01/14 03:19:46;;;;;;;28.90;11.20;;;;;;;15.73;41.25;103778.84;5111528;28;20042;-67
2022/01/14 03:22:20;;;;;;;24.47;11.07;;;;;;;15.03;42.28;103778.53;5130146;28;20042;-67
2022/01/14 03:27:11;;;;;;;25.10;10.77;;;;;;;15.26;41.81;103771.94;5128936;28;20023;-67
2022/01/14 03:29:37;;;;;;;27.40;10.97;;;;;;;15.22;42.06;103763.94;5111389;28;20039;-68
2022/01/14 03:32:03;;;;;;;23.57;10.83;;;;;;;14.02;44.14;103765.97;5110645;28;20035;-67
2022/01/14 03:34:30;;;;;;;27.13;10.37;;;;;;;15.17;42.55;103757.72;5129206;28;20106;-67
2022/01/14 03:36:55;;;;;;;26.73;11.40;;;;;;;14.70;42.89;103754.25;5109410;28;20478;-67
2022/01/14 03:39:21;;;;;;;25.33;10.43;;;;;;;15.05;41.79;103755.75;5115806;28;20032;-67
2022/01/14 03:41:48;;;;;;;26.77;10.83;;;;;;;15.47;40.77;103754.72;5111702;28;20027;-67
2022/01/14 03:44:13;;;;;;;27.27;10.80;;;;;;;15.01;42.12;103749.53;5128353;28;20029;-67
2022/01/14 03:46:39;;;;;;;21.87;10.60;;;;;;;15.07;42.28;103743.47;5111542;28;20031;-67
2022/01/14 03:49:04;;;;;;;23.73;11.77;;;;;;;14.75;43.13;103747.34;5096863;28;20064;-67
2022/01/14 03:51:30;;;;;;;27.53;11.90;;;;;;;15.16;41.39;103745.41;5110680;28;20027;-67
2022/01/14 03:53:56;;;;;;;24.73;10.30;;;;;;;15.65;40.82;103743.56;5110524;28;20371;-67
2022/01/14 03:56:25;;;;;;;28.20;11.67;;;;;;;15.76;40.30;103736.69;5129793;28;20051;-67
2022/01/14 03:58:52;;;;;;;29.17;12.40;;;;;;;14.95;41.63;103738.00;5106760;28;20431;-67
2022/01/14 04:01:19;;;;;;;28.53;11.63;;;;;;;15.75;40.66;103734.91;5112450;27;20126;-67
2022/01/14 04:03:46;;;;;;;29.80;10.50;;;;;;;14.71;42.54;103737.59;5111298;28;20020;-67
2022/01/14 04:06:12;;;;;;;32.87;10.00;;;;;;;14.81;42.23;103722.88;5111991;28;20024;-67
2022/01/14 04:08:39;;;;;;;22.70;9.73;;;;;;;15.61;40.57;103723.28;5125341;27;20027;-67
2022/01/14 04:11:05;;;;;;;25.60;10.93;;;;;;;15.58;39.45;103731.16;5133239;27;20027;-68
2022/01/14 04:13:44;;;;;;;24.77;9.70;;;;;;;15.60;39.94;103727.66;5131971;27;20539;-67
2022/01/14 04:16:10;;;;;;;41.87;10.93;;;;;;;16.01;39.67;103723.00;5114762;27;20045;-67
2022/01/14 04:18:36;;;;;;;30.13;10.47;;;;;;;15.14;40.57;103719.03;5109166;27;20031;-68
2022/01/14 04:21:02;;;;;;;34.87;10.83;;;;;;;15.27;40.50;103707.81;5114203;27;20043;-67
2022/01/14 04:23:28;;;;;;;20.60;9.83;;;;;;;15.53;40.18;103711.75;5113700;27;20536;-67
2022/01/14 04:25:54;;;;;;;34.63;10.97;;;;;;;16.06;39.87;103713.34;5114736;27;20068;-67
2022/01/14 04:28:22;;;;;;;30.70;11.40;;;;;;;16.24;39.47;103713.59;5112706;27;20012;-67
2022/01/14 04:30:54;;;;;;;24.50;10.47;;;;;;;16.63;38.19;103706.09;5114806;27;20034;-68
2022/01/14 04:33:20;;;;;;;25.48;10.30;;;;;;;16.29;38.91;103703.09;5112724;27;20023;-68
2022/01/14 04:35:46;;;;;;;33.30;10.70;;;;;;;16.45;38.99;103707.66;5133053;27;20030;-67
2022/01/14 04:38:11;;;;;;;31.13;10.33;;;;;;;16.22;38.79;103698.63;5113659;27;20019;-67
2022/01/14 04:40:36;;;;;;;25.10;10.77;;;;;;;16.39;38.22;103691.78;5113817;27;20797;-68
2022/01/14 04:43:02;;;;;;;27.63;10.50;;;;;;;16.68;38.36;103675.34;5105984;27;20033;-67
2022/01/14 04:48:07;;;;;;;31.07;11.30;;;;;;;16.83;37.20;103678.97;5128379;27;20031;-67
2022/01/14 04:50:34;;;;;;;27.73;10.00;;;;;;;15.50;40.05;103670.41;5114139;27;20027;-67
2022/01/14 04:53:00;;;;;;;28.67;10.20;;;;;;;15.57;39.64;103681.91;5113006;27;20035;-67
2022/01/14 04:55:26;;;;;;;26.43;10.23;;;;;;;15.59;40.44;103701.25;5113329;27;20042;-67
2022/01/14 04:57:53;;;;;;;23.57;10.03;;;;;;;15.59;40.26;103691.63;5096195;27;20027;-67
2022/01/14 05:00:22;;;;;;;29.27;9.50;;;;;;;15.69;39.68;103687.38;5132629;27;20110;-67
2022/01/14 05:02:48;;;;;;;30.93;8.73;;;;;;;15.49;40.59;103678.28;5112267;27;20491;-67
2022/01/14 05:05:17;;;;;;;23.97;8.93;;;;;;;15.34;40.98;103674.53;5132576;27;20023;-67
2022/01/14 05:07:44;;;;;;;24.93;9.10;;;;;;;15.48;39.85;103676.50;5114032;27;20019;-67
2022/01/14 05:12:42;;;;;;;22.77;8.30;;;;;;;15.15;40.98;103669.84;5124562;27;20024;-67
2022/01/14 05:15:08;;;;;;;29.23;8.77;;;;;;;16.13;39.64;103661.56;5112708;27;20465;-68
2022/01/14 05:17:34;;;;;;;25.30;8.87;;;;;;;15.37;40.23;103664.06;5131619;27;20114;-67
2022/01/14 05:19:59;;;;;;;32.63;9.73;;;;;;;15.84;40.16;103652.44;5112880;27;20118;-67
2022/01/14 05:22:25;;;;;;;26.57;9.60;;;;;;;14.86;42.01;103654.47;5108519;27;20028;-67
2022/01/14 05:24:51;;;;;;;26.37;8.53;;;;;;;15.57;40.23;103652.91;5119765;27;20028;-67
2022/01/14 05:27:17;;;;;;;27.70;9.43;;;;;;;16.17;39.02;103642.25;5124514;27;20042;-67
2022/01/14 05:29:43;;;;;;;25.53;9.27;;;;;;;16.28;38.40;103636.22;5131117;27;20035;-67
2022/01/14 05:32:12;;;;;;;23.77;8.83;;;;;;;16.03;39.25;103634.19;5112045;27;20026;-67
2022/01/14 05:34:39;;;;;;;29.03;8.57;;;;;;;16.21;39.12;103629.13;5131110;27;20022;-67
2022/01/14 05:37:05;;;;;;;22.17;9.17;;;;;;;16.08;39.21;103646.56;5112030;27;20027;-67
2022/01/14 05:39:31;;;;;;;32.73;9.80;;;;;;;15.13;40.96;103653.16;5131682;27;20483;-68
2022/01/14 05:41:57;;;;;;;26.80;9.33;;;;;;;15.68;40.68;103653.06;5112543;27;20030;-68
2022/01/14 05:44:26;;;;;;;22.17;8.90;;;;;;;16.07;39.51;103655.38;5111384;27;20171;-67
2022/01/14 05:46:52;;;;;;;23.17;9.93;;;;;;;16.16;39.13;103651.06;5112746;27;20019;-67
2022/01/14 05:49:18;;;;;;;21.87;9.23;;;;;;;16.98;37.24;103649.22;5112896;27;20031;-68
2022/01/14 05:51:44;;;;;;;31.83;10.40;;;;;;;15.72;39.82;103642.56;5130294;27;20513;-67
2022/01/14 05:54:09;;;;;;;23.13;9.83;;;;;;;16.00;39.40;103650.84;5112577;27;20035;-67
2022/01/14 05:56:35;;;;;;;28.47;9.40;;;;;;;16.21;39.53;103650.25;5096074;27;20030;-68
2022/01/14 05:59:00;;;;;;;23.20;9.17;;;;;;;15.61;39.97;103657.38;5130720;27;20028;-67
2022/01/14 06:01:25;;;;;;;32.60;8.90;;;;;;;16.10;39.43;103657.13;5112549;27;20030;-68
2022/01/14 06:03:51;;;;;;;22.67;8.70;;;;;;;16.39;39.17;103657.47;5100450;28;20027;-67
2022/01/14 06:06:16;;;;;;;23.77;8.03;;;;;;;15.42;39.88;103657.09;5091767;28;20073;-67
2022/01/14 06:08:42;;;;;;;18.83;8.80;;;;;;;15.43;40.93;103643.06;5112939;27;20112;-68
2022/01/14 06:11:07;;;;;;;19.57;8.23;;;;;;;15.28;40.65;103669.19;5112362;27;20037;-67
2022/01/14 06:13:33;;;;;;;20.37;8.30;;;;;;;15.16;41.34;103659.34;5104408;27;20023;-67
2022/01/14 06:15:58;;;;;;;22.30;8.37;;;;;;;15.11;41.18;103666.28;5112713;27;20055;-67
2022/01/14 06:18:23;;;;;;;21.13;8.03;;;;;;;15.38;40.69;103660.56;5111880;27;20030;-67
2022/01/14 06:20:49;;;;;;;15.30;7.80;;;;;;;15.24;40.31;103656.84;5111751;27;20466;-67
2022/01/14 06:23:15;;;;;;;15.30;7.90;;;;;;;15.54;40.27;103653.75;5120412;27;20032;-67
2022/01/14 06:25:41;;;;;;;17.60;7.40;;;;;;;15.05;41.14;103655.66;5107867;27;20031;-67
2022/01/14 06:28:06;;;;;;;23.87;8.23;;;;;;;14.69;42.20;103651.56;5129783;27;20030;-67
2022/01/14 06:30:31;;;;;;;26.13;8.40;;;;;;;14.90;41.43;103651.03;5112572;27;20115;-68
2022/01/14 06:32:57;;;;;;;23.13;8.33;;;;;;;14.68;41.59;103645.38;5110682;27;20031;-68
2022/01/14 06:35:23;;;;;;;20.13;8.57;;;;;;;15.41;40.30;103643.91;5130504;27;20054;-68
2022/01/14 06:37:49;;;;;;;18.73;8.10;;;;;;;14.24;42.74;103637.53;5111590;27;20450;-67
2022/01/14 06:40:15;;;;;;;22.17;7.53;;;;;;;13.72;44.58;103659.28;5130200;27;20530;-68
2022/01/14 06:42:41;;;;;;;23.70;7.73;;;;;;;14.54;42.16;103660.91;5104968;28;20062;-67
2022/01/14 06:45:09;;;;;;;20.80;7.80;;;;;;;15.33;40.80;103658.72;5110050;28;20051;-67
2022/01/14 06:47:34;;;;;;;21.87;8.27;;;;;;;15.29;40.52;103663.06;5100095;27;20019;-67
2022/01/14 06:50:00;;;;;;;27.67;8.53;;;;;;;15.60;39.93;103671.41;5112072;28;20033;-67
2022/01/14 06:52:25;;;;;;;21.07;7.93;;;;;;;16.04;39.30;103668.50;5128826;27;20079;-67
2022/01/14 06:54:51;;;;;;;18.97;8.80;;;;;;;15.84;39.26;103672.63;5111036;27;20033;-67
2022/01/14 06:57:16;;;;;;;26.67;8.87;;;;;;;15.73;39.25;103673.34;5111641;28;20035;-67
2022/01/14 06:59:42;;;;;;;33.53;9.50;;;;;;;15.82;39.37;103682.28;5112256;28;20027;-67
2022/01/14 07:02:09;;;;;;;19.73;8.13;;;;;;;16.23;38.69;103679.28;5109539;28;20027;-68
2022/01/14 07:04:35;;;;;;;21.80;8.60;;;;;;;16.15;38.63;103676.53;5111830;28;20080;-68
2022/01/14 07:07:01;;;;;;;17.80;8.73;;;;;;;15.94;39.28;103682.44;5111466;28;20031;-67
2022/01/14 07:09:27;;;;;;;28.13;8.77;;;;;;;16.34;38.19;103677.63;5111379;28;20131;-67
2022/01/14 07:11:58;;;;;;;18.33;8.50;;;;;;;16.24;38.96;103689.84;5109292;28;20486;-67
2022/01/14 07:14:24;;;;;;;26.70;8.50;;;;;;;16.38;38.15;103676.81;5091478;28;20070;-67
2022/01/14 07:16:50;;;;;;;20.63;9.40;;;;;;;15.43;39.30;103669.41;5100671;28;20470;-67
2022/01/14 07:19:18;;;;;;;15.90;8.23;;;;;;;15.66;39.48;103676.78;5111587;28;20042;-67
2022/01/14 07:21:44;;;;;;;23.83;8.60;;;;;;;15.05;40.40;103677.59;5110735;28;20553;-67
2022/01/14 07:24:10;;;;;;;19.27;9.20;;;;;;;15.88;39.78;103682.34;5106080;28;20026;-68
2022/01/14 07:26:36;;;;;;;16.80;8.40;;;;;;;15.92;39.75;103686.81;5111659;28;20375;-67
2022/01/14 07:29:02;;;;;;;25.20;9.73;;;;;;;16.02;39.05;103680.78;5130223;28;20090;-67
2022/01/14 07:31:28;;;;;;;27.50;9.90;;;;;;;16.06;38.66;103682.59;5110990;28;20042;-67
2022/01/14 07:33:54;;;;;;;19.73;9.30;;;;;;;15.84;39.92;103691.09;5111358;28;20081;-67
2022/01/14 07:36:20;;;;;;;30.47;9.20;;;;;;;14.64;41.13;103680.41;5110643;27;20062;-67
2022/01/14 07:38:45;;;;;;;17.83;7.80;;;;;;;15.84;39.58;103692.00;5116335;27;20517;-67
2022/01/14 07:41:10;;;;;;;19.60;8.23;;;;;;;15.88;39.51;103692.91;5133625;27;20031;-68
2022/01/14 07:43:36;;;;;;;39.27;10.00;;;;;;;16.08;38.69;103691.41;5110267;27;20023;-67
2022/01/14 07:46:03;;;;;;;25.70;8.77;;;;;;;15.64;39.84;103689.03;5115819;27;20027;-67
2022/01/14 07:48:28;;;;;;;18.67;8.10;;;;;;;16.10;39.47;103689.69;5111948;27;20023;-68
2022/01/14 07:50:53;;;;;;;23.17;8.93;;;;;;;16.34;38.88;103706.66;5133045;27;20023;-68
2022/01/14 07:53:19;;;;;;;23.40;8.40;;;;;;;15.85;39.77;103698.16;5125553;27;20394;-67
2022/01/14 07:55:45;;;;;;;28.77;8.83;;;;;;;15.16;40.03;103692.72;5114005;28;20468;-67
2022/01/14 07:58:10;;;;;;;26.23;7.97;;;;;;;14.33;41.51;103695.59;5101995;27;20126;-67
2022/01/14 08:00:37;;;;;;;23.47;7.13;;;;;;;15.73;40.21;103688.28;5130723;27;20019;-67
2022/01/14 08:03:03;;;;;;;20.73;8.40;;;;;;;15.16;40.68;103698.00;5132923;27;20062;-67
2022/01/14 08:05:28;;;;;;;24.20;7.97;;;;;;;15.75;39.42;103695.34;5114138;27;20050;-67
2022/01/14 08:07:57;;;;;;;22.53;8.00;;;;;;;16.30;38.72;103696.94;5132781;27;20467;-67
2022/01/14 08:10:22;;;;;;;20.73;8.37;;;;;;;15.67;39.18;103704.03;5131517;27;20141;-67
2022/01/14 08:12:48;;;;;;;21.13;8.40;;;;;;;15.94;38.91;103700.91;5114159;27;20118;-67
2022/01/14 08:15:14;;;;;;;29.90;8.40;;;;;;;16.49;37.78;103694.53;5133645;27;20031;-67
2022/01/14 08:17:40;;;;;;;20.20;8.43;;;;;;;15.90;39.49;103710.53;5111784;27;20139;-67
2022/01/14 08:20:06;;;;;;;29.90;9.50;;;;;;;15.83;39.34;103694.63;5122785;27;20055;-67
2022/01/14 08:22:32;;;;;;;23.27;9.30;;;;;;;15.07;40.67;103699.59;5092358;28;20035;-68
2022/01/14 08:24:58;;;;;;;17.87;8.27;;;;;;;16.19;38.84;103693.31;5101917;28;20031;-68
2022/01/14 08:27:26;;;;;;;20.77;9.87;;;;;;;16.18;38.82;103691.53;5108152;28;20099;-67
2022/01/14 08:29:52;;;;;;;31.20;9.90;;;;;;;16.01;39.22;103686.94;5096862;28;20015;-68
2022/01/14 08:32:18;;;;;;;25.20;9.97;;;;;;;16.47;38.42;103706.81;5108175;28;20023;-67
2022/01/14 08:34:43;;;;;;;20.37;9.63;;;;;;;16.48;38.09;103700.66;5110000;28;20475;-67
2022/01/14 08:37:09;;;;;;;20.93;8.60;;;;;;;17.11;37.17;103715.38;5112041;28;20106;-68
2022/01/14 08:39:34;;;;;;;23.80;8.63;;;;;;;16.07;39.28;103718.69;5104978;28;20130;-67
2022/01/14 08:42:02;;;;;;;26.63;9.70;;;;;;;16.16;39.07;103709.97;5104992;28;20052;-68
2022/01/14 08:44:27;;;;;;;25.23;9.70;;;;;;;16.18;39.39;103704.72;5110187;28;20031;-67
2022/01/14 08:46:53;;;;;;;16.13;8.07;;;;;;;16.37;38.70;103709.34;5110058;28;20502;-68
2022/01/14 08:49:18;;;;;;;19.93;8.70;;;;;;;16.52;38.45;103710.41;5109708;28;20039;-67
2022/01/14 08:51:44;;;;;;;18.80;9.13;;;;;;;16.42;38.74;103712.94;5110700;28;20028;-67
2022/01/14 08:54:10;;;;;;;21.50;9.90;;;;;;;15.86;39.66;103711.34;5109384;28;20023;-67
2022/01/14 08:56:36;;;;;;;21.07;9.87;;;;;;;15.71;39.98;103706.72;5109685;28;20031;-67
2022/01/14 08:59:03;;;;;;;22.23;9.77;;;;;;;15.32;41.07;103713.19;5098482;28;20088;-67
2022/01/14 09:01:28;;;;;;;22.57;9.80;;;;;;;15.60;40.99;103692.50;5109699;28;20032;-68
2022/01/14 09:03:54;;;;;;;24.73;11.23;;;;;;;15.31;41.20;103686.81;5108119;28;20114;-67
2022/01/14 09:06:19;;;;;;;23.37;10.03;;;;;;;15.71;40.55;103690.91;5110298;28;20390;-67
2022/01/14 09:08:45;;;;;;;29.70;10.33;;;;;;;15.48;41.25;103694.97;5109683;28;20032;-68
2022/01/14 09:11:10;;;;;;;29.13;10.50;;;;;;;16.26;39.37;103689.88;5109792;28;20483;-67
2022/01/14 09:13:36;;;;;;;29.03;11.57;;;;;;;16.85;38.63;103682.53;5110050;28;20027;-68
2022/01/14 09:16:01;;;;;;;24.23;10.50;;;;;;;16.96;38.77;103688.81;5110604;28;20495;-67
2022/01/14 09:18:28;;;;;;;26.23;10.17;;;;;;;17.26;37.56;103688.19;5111446;28;20060;-67
2022/01/14 09:20:54;;;;;;;20.60;10.93;;;;;;;16.74;38.87;103679.78;5109629;28;20040;-68
2022/01/14 09:23:24;;;;;;;30.87;11.90;;;;;;;17.29;37.98;103689.97;5109025;28;20293;-67
2022/01/14 09:25:51;;;;;;;28.83;10.87;;;;;;;16.65;38.67;103685.88;5109783;28;20106;-67
2022/01/14 09:28:17;;;;;;;21.00;9.63;;;;;;;17.16;37.93;103706.59;5109757;28;20031;-67
2022/01/14 09:30:42;;;;;;;23.10;10.43;;;;;;;16.73;38.53;103693.88;5104215;28;20390;-68
2022/01/14 09:33:07;;;;;;;25.33;10.97;;;;;;;16.55;39.57;103694.56;5091851;28;20032;-67
2022/01/14 09:35:33;;;;;;;24.27;11.10;;;;;;;17.30;37.86;103702.31;5106568;28;20019;-67
2022/01/14 09:37:59;;;;;;;22.00;11.20;;;;;;;17.60;37.92;103693.69;5107765;28;20020;-67
2022/01/14 09:40:24;;;;;;;21.73;10.80;;;;;;;17.63;37.83;103708.69;5108222;28;20100;-67
2022/01/14 09:42:51;;;;;;;23.53;10.43;;;;;;;17.85;36.50;103711.47;5105815;28;20040;-67
2022/01/14 09:45:20;;;;;;;21.23;10.63;;;;;;;17.57;37.40;103708.66;5108457;28;20039;-67
2022/01/14 09:47:50;;;;;;;18.37;10.00;;;;;;;18.02;37.14;103701.84;5111012;28;20016;-67
2022/01/14 09:50:16;;;;;;;28.20;11.40;;;;;;;17.08;37.93;103693.34;5103049;28;20036;-67
2022/01/14 09:52:41;;;;;;;24.63;10.93;;;;;;;17.56;38.08;103696.31;5095562;28;20081;-67
2022/01/14 09:55:07;;;;;;;27.23;12.33;;;;;;;17.66;37.91;103694.63;5101695;28;20230;-67
2022/01/14 09:57:32;;;;;;;25.47;12.10;;;;;;;17.68;37.51;103700.78;5110435;28;20076;-67
2022/01/14 09:59:58;;;;;;;25.63;12.23;;;;;;;17.21;38.74;103695.19;5091763;28;20202;-68
2022/01/14 10:02:35;;;;;;;26.63;12.50;;;;;;;17.78;37.94;103708.78;5098907;28;20098;-67
2022/01/14 10:05:02;;;;;;;25.83;10.47;;;;;;;17.12;39.82;103705.72;5092521;28;20028;-67
2022/01/14 10:07:28;;;;;;;26.63;11.70;;;;;;;17.60;38.42;103706.03;5109182;28;20024;-67
2022/01/14 10:09:59;;;;;;;24.20;11.70;;;;;;;16.78;40.02;103706.25;5108164;28;20019;-67
2022/01/14 10:12:25;;;;;;;21.67;10.97;;;;;;;17.70;38.40;103707.84;5107111;28;20026;-68
2022/01/14 10:14:56;;;;;;;21.43;11.17;;;;;;;18.19;37.61;103698.38;5110358;28;20102;-67
2022/01/14 10:17:21;;;;;;;22.13;10.17;;;;;;;18.82;35.54;103698.50;5101549;28;20030;-67
2022/01/14 10:19:48;;;;;;;23.93;11.13;;;;;;;18.59;36.75;103702.03;5105585;27;20031;-67
2022/01/14 10:22:23;;;;;;;25.27;11.50;;;;;;;18.31;37.30;103703.72;5111678;27;20030;-67
2022/01/14 10:25:00;;;;;;;21.33;10.80;;;;;;;17.37;39.21;103712.06;5130773;27;20019;-68
2022/01/14 10:27:32;;;;;;;25.83;12.33;;;;;;;17.32;39.55;103702.31;5130783;27;20023;-67
2022/01/14 10:30:20;;;;;;;25.60;12.05;;;;;;;17.43;39.67;103704.19;5108444;27;20046;-67
2022/01/14 10:33:05;;;;;;;26.37;11.80;;;;;;;18.65;37.24;103693.22;5114048;27;20595;-67
2022/01/14 10:35:35;;;;;;;19.83;10.00;;;;;;;18.75;36.26;103695.00;5130514;27;20019;-67
2022/01/14 10:38:04;;;;;;;21.70;10.77;;;;;;;18.41;37.43;103700.25;5112380;27;20026;-67
2022/01/14 10:40:31;;;;;;;20.60;10.47;;;;;;;18.74;36.39;103687.94;5104314;27;20108;-67
2022/01/14 10:43:08;;;;;;;20.50;10.53;;;;;;;19.18;36.45;103693.25;5091935;28;20064;-67
2022/01/14 10:45:34;;;;;;;27.13;11.13;;;;;;;19.50;35.70;103701.16;5101650;27;20031;-67
2022/01/14 10:48:00;;;;;;;23.73;12.03;;;;;;;19.59;35.59;103705.53;5110367;27;20490;-68
2022/01/14 10:50:31;;;;;;;21.83;10.33;;;;;;;18.75;36.64;103708.25;5106928;27;20026;-67
2022/01/14 10:52:57;;;;;;;22.77;10.70;;;;;;;18.98;36.69;103702.09;5111182;27;20030;-67
2022/01/14 10:55:32;;;;;;;22.87;10.70;;;;;;;19.53;36.03;103701.16;5107914;28;20361;-68
2022/01/14 10:57:58;;;;;;;27.90;11.87;;;;;;;19.17;37.03;103702.09;5107374;28;20056;-67
2022/01/14 11:00:24;;;;;;;24.23;12.03;;;;;;;19.29;36.21;103689.69;5120894;28;20035;-67
2022/01/14 11:02:52;;;;;;;27.67;12.50;;;;;;;18.93;36.93;103694.16;5099617;28;20015;-67
2022/01/14 11:05:23;;;;;;;23.93;11.77;;;;;;;18.41;37.33;103694.94;5123771;28;20027;-68
2022/01/14 11:07:50;;;;;;;23.63;12.13;;;;;;;17.98;39.04;103694.78;5127866;28;20019;-67
2022/01/14 11:10:24;;;;;;;20.37;10.93;;;;;;;18.16;38.93;103685.16;5102462;28;20016;-68
2022/01/14 11:12:52;;;;;;;25.67;11.77;;;;;;;19.00;37.90;103687.09;5113171;27;20020;-67
2022/01/14 11:15:18;;;;;;;24.87;12.07;;;;;;;18.91;37.84;103679.13;5118988;27;20031;-67
2022/01/14 11:17:51;;;;;;;31.90;12.57;;;;;;;19.32;37.14;103671.13;5115948;27;20375;-67
2022/01/14 11:20:25;;;;;;;27.08;13.00;;;;;;;18.73;37.91;103680.84;5112325;27;20046;-67
2022/01/14 11:25:49;;;;;;;23.77;12.40;;;;;;;19.06;37.41;103675.59;5120415;27;20039;-67
2022/01/14 11:28:19;;;;;;;23.27;13.03;;;;;;;19.03;36.90;103679.13;5114313;27;20983;-68
2022/01/14 11:30:45;;;;;;;26.17;12.63;;;;;;;19.78;36.01;103683.41;5115413;27;20027;-67
2022/01/14 11:33:13;;;;;;;22.03;13.37;;;;;;;19.93;35.85;103673.63;5133607;27;20023;-67
2022/01/14 11:35:38;;;;;;;24.03;12.10;;;;;;;19.79;35.56;103677.19;5119380;27;20089;-67
2022/01/14 11:38:34;;;;;;;25.27;12.47;;;;;;;19.43;36.36;103676.41;5114316;27;20059;-67